sensor_id;sensor_type;location;lat;lon;timestamp;P1;durP1;ratioP1;P2;durP2;ratioP2
32319;SDS011;19080;51.750;5.888;2023-07-31T00:01:43;4.50;;;3.25;;
32319;SDS011;19080;51.750;5.888;2023-07-31T00:04:11;6.55;;;5.15;;
32319;SDS011;19080;51.750;5.888;2023-07-31T00:06:38;10.35;;;6.32;;
32319;SDS011;19080;51.750;5.888;2023-07-31T00:09:05;14.80;;;7.78;;
32319;SDS011;19080;51.750;5.888;2023-07-31T00:11:32;10.90;;;6.60;;
32319;SDS011;19080;51.750;5.888;2023-07-31T00:13:58;15.23;;;9.18;;
32319;SDS011;19080;51.750;5.888;2023-07-31T00:16:26;21.30;;;9.98;;
32319;SDS011;19080;51.750;5.888;2023-07-31T00:18:53;24.55;;;12.77;;
32319;SDS011;19080;51.750;5.888;2023-07-31T00:21:19;32.58;;;14.98;;
32319;SDS011;19080;51.750;5.888;2023-07-31T00:23:46;35.50;;;14.95;;
32319;SDS011;19080;51.750;5.888;2023-07-31T00:26:13;33.72;;;14.40;;
32319;SDS011;19080;51.750;5.888;2023-07-31T00:28:39;29.88;;;14.27;;
32319;SDS011;19080;51.750;5.888;2023-07-31T00:31:06;39.85;;;16.15;;
32319;SDS011;19080;51.750;5.888;2023-07-31T00:33:34;30.65;;;14.85;;
32319;SDS011;19080;51.750;5.888;2023-07-31T00:36:02;31.42;;;13.43;;
32319;SDS011;19080;51.750;5.888;2023-07-31T00:38:29;30.25;;;13.30;;
32319;SDS011;19080;51.750;5.888;2023-07-31T00:40:56;23.80;;;13.45;;
32319;SDS011;19080;51.750;5.888;2023-07-31T00:43:22;26.20;;;11.75;;
32319;SDS011;19080;51.750;5.888;2023-07-31T00:45:49;27.48;;;12.07;;
32319;SDS011;19080;51.750;5.888;2023-07-31T00:48:16;32.65;;;13.07;;
32319;SDS011;19080;51.750;5.888;2023-07-31T00:50:43;27.13;;;13.32;;
32319;SDS011;19080;51.750;5.888;2023-07-31T00:53:11;30.38;;;11.80;;
32319;SDS011;19080;51.750;5.888;2023-07-31T00:55:38;27.13;;;11.85;;
32319;SDS011;19080;51.750;5.888;2023-07-31T00:58:05;32.67;;;12.27;;
32319;SDS011;19080;51.750;5.888;2023-07-31T01:00:31;24.65;;;11.32;;
32319;SDS011;19080;51.750;5.888;2023-07-31T01:02:58;23.38;;;11.02;;
32319;SDS011;19080;51.750;5.888;2023-07-31T01:05:31;26.30;;;10.32;;
32319;SDS011;19080;51.750;5.888;2023-07-31T01:08:12;26.27;;;10.18;;
32319;SDS011;19080;51.750;5.888;2023-07-31T01:10:49;21.85;;;10.45;;
32319;SDS011;19080;51.750;5.888;2023-07-31T01:13:21;25.98;;;11.02;;
32319;SDS011;19080;51.750;5.888;2023-07-31T01:15:47;19.65;;;9.48;;
32319;SDS011;19080;51.750;5.888;2023-07-31T01:18:14;25.15;;;10.80;;
32319;SDS011;19080;51.750;5.888;2023-07-31T01:20:41;27.35;;;10.35;;
32319;SDS011;19080;51.750;5.888;2023-07-31T01:26:26;21.88;;;10.85;;
32319;SDS011;19080;51.750;5.888;2023-07-31T01:28:58;25.52;;;9.98;;
32319;SDS011;19080;51.750;5.888;2023-07-31T01:31:30;16.95;;;8.55;;
32319;SDS011;19080;51.750;5.888;2023-07-31T01:34:00;21.77;;;9.02;;
32319;SDS011;19080;51.750;5.888;2023-07-31T01:36:30;22.00;;;9.50;;
32319;SDS011;19080;51.750;5.888;2023-07-31T01:39:00;22.48;;;9.75;;
32319;SDS011;19080;51.750;5.888;2023-07-31T01:41:27;20.45;;;8.80;;
32319;SDS011;19080;51.750;5.888;2023-07-31T01:43:53;19.73;;;8.57;;
32319;SDS011;19080;51.750;5.888;2023-07-31T01:46:20;19.08;;;8.35;;
32319;SDS011;19080;51.750;5.888;2023-07-31T01:48:47;19.20;;;8.07;;
32319;SDS011;19080;51.750;5.888;2023-07-31T01:51:14;19.52;;;9.48;;
32319;SDS011;19080;51.750;5.888;2023-07-31T01:53:40;18.75;;;7.68;;
32319;SDS011;19080;51.750;5.888;2023-07-31T01:56:07;18.30;;;7.45;;
32319;SDS011;19080;51.750;5.888;2023-07-31T01:58:34;23.60;;;8.48;;
32319;SDS011;19080;51.750;5.888;2023-07-31T02:01:00;21.30;;;8.35;;
32319;SDS011;19080;51.750;5.888;2023-07-31T02:03:27;18.80;;;7.35;;
32319;SDS011;19080;51.750;5.888;2023-07-31T02:05:54;22.52;;;7.63;;
32319;SDS011;19080;51.750;5.888;2023-07-31T02:08:21;15.23;;;7.07;;
32319;SDS011;19080;51.750;5.888;2023-07-31T02:10:48;14.98;;;7.03;;
32319;SDS011;19080;51.750;5.888;2023-07-31T02:13:14;21.63;;;7.50;;
32319;SDS011;19080;51.750;5.888;2023-07-31T02:15:41;14.30;;;6.82;;
32319;SDS011;19080;51.750;5.888;2023-07-31T02:18:08;18.52;;;7.75;;
32319;SDS011;19080;51.750;5.888;2023-07-31T02:20:35;19.55;;;7.72;;
32319;SDS011;19080;51.750;5.888;2023-07-31T02:23:02;17.63;;;7.55;;
32319;SDS011;19080;51.750;5.888;2023-07-31T02:25:29;18.90;;;6.95;;
32319;SDS011;19080;51.750;5.888;2023-07-31T02:27:55;20.25;;;7.93;;
32319;SDS011;19080;51.750;5.888;2023-07-31T02:30:22;20.35;;;8.32;;
32319;SDS011;19080;51.750;5.888;2023-07-31T02:32:49;23.48;;;8.18;;
32319;SDS011;19080;51.750;5.888;2023-07-31T02:35:16;24.98;;;7.80;;
32319;SDS011;19080;51.750;5.888;2023-07-31T02:37:45;21.38;;;8.38;;
32319;SDS011;19080;51.750;5.888;2023-07-31T02:40:13;24.55;;;8.18;;
32319;SDS011;19080;51.750;5.888;2023-07-31T02:42:40;22.98;;;7.57;;
32319;SDS011;19080;51.750;5.888;2023-07-31T02:45:06;17.38;;;7.63;;
32319;SDS011;19080;51.750;5.888;2023-07-31T02:47:33;12.98;;;7.00;;
32319;SDS011;19080;51.750;5.888;2023-07-31T02:50:01;23.55;;;7.03;;
32319;SDS011;19080;51.750;5.888;2023-07-31T02:52:29;14.80;;;6.80;;
32319;SDS011;19080;51.750;5.888;2023-07-31T02:54:57;19.00;;;7.75;;
32319;SDS011;19080;51.750;5.888;2023-07-31T02:57:24;19.73;;;7.60;;
32319;SDS011;19080;51.750;5.888;2023-07-31T02:59:50;18.23;;;7.63;;
32319;SDS011;19080;51.750;5.888;2023-07-31T03:02:17;20.90;;;7.88;;
32319;SDS011;19080;51.750;5.888;2023-07-31T03:04:44;16.30;;;6.90;;
32319;SDS011;19080;51.750;5.888;2023-07-31T03:07:12;22.35;;;7.20;;
32319;SDS011;19080;51.750;5.888;2023-07-31T03:09:40;19.73;;;7.28;;
32319;SDS011;19080;51.750;5.888;2023-07-31T03:12:07;16.73;;;7.20;;
32319;SDS011;19080;51.750;5.888;2023-07-31T03:14:35;13.70;;;5.88;;
32319;SDS011;19080;51.750;5.888;2023-07-31T03:17:03;16.40;;;6.38;;
32319;SDS011;19080;51.750;5.888;2023-07-31T03:19:30;19.10;;;6.43;;
32319;SDS011;19080;51.750;5.888;2023-07-31T03:21:59;16.25;;;6.97;;
32319;SDS011;19080;51.750;5.888;2023-07-31T03:24:28;21.95;;;7.72;;
32319;SDS011;19080;51.750;5.888;2023-07-31T03:26:55;17.98;;;7.00;;
32319;SDS011;19080;51.750;5.888;2023-07-31T03:29:22;16.10;;;6.03;;
32319;SDS011;19080;51.750;5.888;2023-07-31T03:31:51;17.60;;;6.93;;
32319;SDS011;19080;51.750;5.888;2023-07-31T03:34:18;17.45;;;6.95;;
32319;SDS011;19080;51.750;5.888;2023-07-31T03:36:45;24.65;;;7.78;;
32319;SDS011;19080;51.750;5.888;2023-07-31T03:39:11;17.55;;;6.75;;
32319;SDS011;19080;51.750;5.888;2023-07-31T03:41:38;20.88;;;7.72;;
32319;SDS011;19080;51.750;5.888;2023-07-31T03:44:05;19.20;;;7.53;;
32319;SDS011;19080;51.750;5.888;2023-07-31T03:46:32;20.48;;;7.53;;
32319;SDS011;19080;51.750;5.888;2023-07-31T03:49:00;19.67;;;7.38;;
32319;SDS011;19080;51.750;5.888;2023-07-31T03:51:27;19.85;;;7.53;;
32319;SDS011;19080;51.750;5.888;2023-07-31T03:53:54;14.48;;;6.00;;
32319;SDS011;19080;51.750;5.888;2023-07-31T03:56:21;13.30;;;6.53;;
32319;SDS011;19080;51.750;5.888;2023-07-31T03:58:48;20.20;;;7.18;;
32319;SDS011;19080;51.750;5.888;2023-07-31T04:01:15;18.40;;;6.80;;
32319;SDS011;19080;51.750;5.888;2023-07-31T04:03:43;17.20;;;7.22;;
32319;SDS011;19080;51.750;5.888;2023-07-31T04:06:09;28.52;;;8.38;;
32319;SDS011;19080;51.750;5.888;2023-07-31T04:08:37;16.08;;;7.18;;
32319;SDS011;19080;51.750;5.888;2023-07-31T04:11:03;19.10;;;7.35;;
32319;SDS011;19080;51.750;5.888;2023-07-31T04:13:30;21.45;;;7.40;;
32319;SDS011;19080;51.750;5.888;2023-07-31T04:15:57;17.15;;;6.70;;
32319;SDS011;19080;51.750;5.888;2023-07-31T04:18:24;18.75;;;7.95;;
32319;SDS011;19080;51.750;5.888;2023-07-31T04:20:52;25.27;;;7.88;;
32319;SDS011;19080;51.750;5.888;2023-07-31T04:23:19;14.60;;;7.20;;
32319;SDS011;19080;51.750;5.888;2023-07-31T04:25:45;19.33;;;6.63;;
32319;SDS011;19080;51.750;5.888;2023-07-31T04:28:12;14.13;;;6.43;;
32319;SDS011;19080;51.750;5.888;2023-07-31T04:30:39;23.58;;;7.28;;
32319;SDS011;19080;51.750;5.888;2023-07-31T04:33:06;20.48;;;7.35;;
32319;SDS011;19080;51.750;5.888;2023-07-31T04:35:32;14.45;;;7.15;;
32319;SDS011;19080;51.750;5.888;2023-07-31T04:37:59;15.27;;;6.18;;
32319;SDS011;19080;51.750;5.888;2023-07-31T04:40:26;14.63;;;6.40;;
32319;SDS011;19080;51.750;5.888;2023-07-31T04:42:53;20.55;;;6.93;;
32319;SDS011;19080;51.750;5.888;2023-07-31T04:45:20;16.95;;;6.40;;
32319;SDS011;19080;51.750;5.888;2023-07-31T04:47:47;14.77;;;6.95;;
32319;SDS011;19080;51.750;5.888;2023-07-31T04:50:14;19.40;;;6.63;;
32319;SDS011;19080;51.750;5.888;2023-07-31T04:52:40;18.67;;;6.18;;
32319;SDS011;19080;51.750;5.888;2023-07-31T04:55:07;21.77;;;6.43;;
32319;SDS011;19080;51.750;5.888;2023-07-31T04:57:34;16.15;;;6.15;;
32319;SDS011;19080;51.750;5.888;2023-07-31T05:00:01;13.18;;;5.95;;
32319;SDS011;19080;51.750;5.888;2023-07-31T05:02:27;16.10;;;6.30;;
32319;SDS011;19080;51.750;5.888;2023-07-31T05:04:55;13.13;;;5.30;;
32319;SDS011;19080;51.750;5.888;2023-07-31T05:07:22;16.30;;;6.22;;
32319;SDS011;19080;51.750;5.888;2023-07-31T05:09:48;17.42;;;6.57;;
32319;SDS011;19080;51.750;5.888;2023-07-31T05:12:16;12.77;;;5.28;;
32319;SDS011;19080;51.750;5.888;2023-07-31T05:14:43;16.83;;;5.90;;
32319;SDS011;19080;51.750;5.888;2023-07-31T05:17:09;15.80;;;6.07;;
32319;SDS011;19080;51.750;5.888;2023-07-31T05:19:36;14.10;;;6.07;;
32319;SDS011;19080;51.750;5.888;2023-07-31T05:22:03;20.20;;;6.78;;
32319;SDS011;19080;51.750;5.888;2023-07-31T05:24:30;15.50;;;6.07;;
32319;SDS011;19080;51.750;5.888;2023-07-31T05:26:56;15.52;;;5.72;;
32319;SDS011;19080;51.750;5.888;2023-07-31T05:29:24;16.65;;;6.07;;
32319;SDS011;19080;51.750;5.888;2023-07-31T05:31:51;15.25;;;6.20;;
32319;SDS011;19080;51.750;5.888;2023-07-31T05:34:17;13.93;;;6.05;;
32319;SDS011;19080;51.750;5.888;2023-07-31T05:36:44;13.07;;;5.93;;
32319;SDS011;19080;51.750;5.888;2023-07-31T05:39:11;16.02;;;6.32;;
32319;SDS011;19080;51.750;5.888;2023-07-31T05:41:37;14.52;;;5.72;;
32319;SDS011;19080;51.750;5.888;2023-07-31T05:44:05;15.20;;;6.30;;
32319;SDS011;19080;51.750;5.888;2023-07-31T05:46:32;14.48;;;6.38;;
32319;SDS011;19080;51.750;5.888;2023-07-31T05:49:00;14.23;;;6.05;;
32319;SDS011;19080;51.750;5.888;2023-07-31T05:51:27;21.08;;;7.00;;
32319;SDS011;19080;51.750;5.888;2023-07-31T05:53:54;16.02;;;6.07;;
32319;SDS011;19080;51.750;5.888;2023-07-31T05:56:21;18.30;;;6.25;;
32319;SDS011;19080;51.750;5.888;2023-07-31T05:58:48;11.10;;;5.32;;
32319;SDS011;19080;51.750;5.888;2023-07-31T06:01:16;14.23;;;6.25;;
32319;SDS011;19080;51.750;5.888;2023-07-31T06:03:43;15.63;;;6.47;;
32319;SDS011;19080;51.750;5.888;2023-07-31T06:06:10;12.10;;;6.55;;
32319;SDS011;19080;51.750;5.888;2023-07-31T06:08:37;13.85;;;6.30;;
32319;SDS011;19080;51.750;5.888;2023-07-31T06:11:04;12.07;;;6.30;;
32319;SDS011;19080;51.750;5.888;2023-07-31T06:13:32;12.85;;;6.70;;
32319;SDS011;19080;51.750;5.888;2023-07-31T06:15:58;13.05;;;6.28;;
32319;SDS011;19080;51.750;5.888;2023-07-31T06:18:26;12.35;;;6.05;;
32319;SDS011;19080;51.750;5.888;2023-07-31T06:20:52;10.20;;;5.43;;
32319;SDS011;19080;51.750;5.888;2023-07-31T06:23:20;11.30;;;6.03;;
32319;SDS011;19080;51.750;5.888;2023-07-31T06:25:47;10.02;;;5.40;;
32319;SDS011;19080;51.750;5.888;2023-07-31T06:28:13;9.23;;;5.07;;
32319;SDS011;19080;51.750;5.888;2023-07-31T06:30:40;7.63;;;3.83;;
32319;SDS011;19080;51.750;5.888;2023-07-31T06:33:07;8.40;;;4.53;;
32319;SDS011;19080;51.750;5.888;2023-07-31T06:35:34;9.25;;;4.70;;
32319;SDS011;19080;51.750;5.888;2023-07-31T06:38:00;7.32;;;3.85;;
32319;SDS011;19080;51.750;5.888;2023-07-31T06:40:31;5.50;;;3.60;;
32319;SDS011;19080;51.750;5.888;2023-07-31T06:42:58;5.10;;;3.17;;
32319;SDS011;19080;51.750;5.888;2023-07-31T06:45:24;8.63;;;3.80;;
32319;SDS011;19080;51.750;5.888;2023-07-31T06:47:51;4.88;;;3.25;;
32319;SDS011;19080;51.750;5.888;2023-07-31T06:50:18;5.20;;;3.20;;
32319;SDS011;19080;51.750;5.888;2023-07-31T06:52:44;4.95;;;3.13;;
32319;SDS011;19080;51.750;5.888;2023-07-31T06:55:20;4.22;;;2.78;;
32319;SDS011;19080;51.750;5.888;2023-07-31T06:57:51;4.05;;;2.88;;
32319;SDS011;19080;51.750;5.888;2023-07-31T07:00:20;3.53;;;2.78;;
32319;SDS011;19080;51.750;5.888;2023-07-31T07:02:48;4.32;;;2.72;;
32319;SDS011;19080;51.750;5.888;2023-07-31T07:05:15;3.80;;;2.83;;
32319;SDS011;19080;51.750;5.888;2023-07-31T07:07:43;3.67;;;2.58;;
32319;SDS011;19080;51.750;5.888;2023-07-31T07:10:10;3.35;;;2.70;;
32319;SDS011;19080;51.750;5.888;2023-07-31T07:12:37;3.80;;;2.92;;
32319;SDS011;19080;51.750;5.888;2023-07-31T07:15:03;3.25;;;2.78;;
32319;SDS011;19080;51.750;5.888;2023-07-31T07:17:31;4.32;;;3.00;;
32319;SDS011;19080;51.750;5.888;2023-07-31T07:19:58;3.03;;;2.53;;
32319;SDS011;19080;51.750;5.888;2023-07-31T07:22:26;3.17;;;2.72;;
32319;SDS011;19080;51.750;5.888;2023-07-31T07:24:56;3.45;;;3.00;;
32319;SDS011;19080;51.750;5.888;2023-07-31T07:27:23;3.25;;;2.47;;
32319;SDS011;19080;51.750;5.888;2023-07-31T07:29:50;3.10;;;2.80;;
32319;SDS011;19080;51.750;5.888;2023-07-31T07:32:20;3.15;;;2.78;;
32319;SDS011;19080;51.750;5.888;2023-07-31T07:34:48;3.10;;;2.80;;
32319;SDS011;19080;51.750;5.888;2023-07-31T07:37:15;2.50;;;2.30;;
32319;SDS011;19080;51.750;5.888;2023-07-31T07:39:42;3.58;;;2.80;;
32319;SDS011;19080;51.750;5.888;2023-07-31T07:42:09;3.03;;;2.40;;
32319;SDS011;19080;51.750;5.888;2023-07-31T07:44:36;3.25;;;2.95;;
32319;SDS011;19080;51.750;5.888;2023-07-31T07:47:02;3.13;;;2.83;;
32319;SDS011;19080;51.750;5.888;2023-07-31T07:49:29;3.30;;;2.88;;
32319;SDS011;19080;51.750;5.888;2023-07-31T07:51:56;5.90;;;2.63;;
32319;SDS011;19080;51.750;5.888;2023-07-31T07:54:23;3.53;;;2.58;;
32319;SDS011;19080;51.750;5.888;2023-07-31T07:56:49;3.00;;;2.70;;
32319;SDS011;19080;51.750;5.888;2023-07-31T07:59:16;2.70;;;2.47;;
32319;SDS011;19080;51.750;5.888;2023-07-31T08:01:43;3.10;;;2.80;;
32319;SDS011;19080;51.750;5.888;2023-07-31T08:04:10;3.55;;;2.85;;
32319;SDS011;19080;51.750;5.888;2023-07-31T08:06:36;4.40;;;3.00;;
32319;SDS011;19080;51.750;5.888;2023-07-31T08:09:04;2.72;;;2.50;;
32319;SDS011;19080;51.750;5.888;2023-07-31T08:11:33;3.47;;;2.75;;
32319;SDS011;19080;51.750;5.888;2023-07-31T08:13:59;2.53;;;2.30;;
32319;SDS011;19080;51.750;5.888;2023-07-31T08:16:26;3.50;;;2.97;;
32319;SDS011;19080;51.750;5.888;2023-07-31T08:18:53;4.25;;;2.58;;
32319;SDS011;19080;51.750;5.888;2023-07-31T08:21:21;3.75;;;2.63;;
32319;SDS011;19080;51.750;5.888;2023-07-31T08:23:48;4.38;;;3.30;;
32319;SDS011;19080;51.750;5.888;2023-07-31T08:26:15;3.97;;;3.40;;
32319;SDS011;19080;51.750;5.888;2023-07-31T08:28:43;5.53;;;4.35;;
32319;SDS011;19080;51.750;5.888;2023-07-31T08:31:10;5.47;;;3.70;;
32319;SDS011;19080;51.750;5.888;2023-07-31T08:33:37;5.72;;;4.10;;
32319;SDS011;19080;51.750;5.888;2023-07-31T08:36:05;4.53;;;3.40;;
32319;SDS011;19080;51.750;5.888;2023-07-31T08:38:32;5.68;;;4.13;;
32319;SDS011;19080;51.750;5.888;2023-07-31T08:40:59;5.28;;;3.95;;
32319;SDS011;19080;51.750;5.888;2023-07-31T08:43:26;6.97;;;4.05;;
32319;SDS011;19080;51.750;5.888;2023-07-31T08:45:53;6.53;;;3.92;;
32319;SDS011;19080;51.750;5.888;2023-07-31T08:48:21;4.80;;;3.47;;
32319;SDS011;19080;51.750;5.888;2023-07-31T08:50:51;5.40;;;3.63;;
32319;SDS011;19080;51.750;5.888;2023-07-31T08:53:18;4.95;;;3.28;;
32319;SDS011;19080;51.750;5.888;2023-07-31T08:55:45;3.65;;;3.20;;
32319;SDS011;19080;51.750;5.888;2023-07-31T08:58:14;4.60;;;3.13;;
32319;SDS011;19080;51.750;5.888;2023-07-31T09:00:41;4.25;;;3.47;;
32319;SDS011;19080;51.750;5.888;2023-07-31T09:03:14;3.78;;;3.05;;
32319;SDS011;19080;51.750;5.888;2023-07-31T09:05:43;3.83;;;3.00;;
32319;SDS011;19080;51.750;5.888;2023-07-31T09:08:12;3.92;;;3.40;;
32319;SDS011;19080;51.750;5.888;2023-07-31T09:10:42;3.60;;;2.85;;
32319;SDS011;19080;51.750;5.888;2023-07-31T09:13:09;3.88;;;3.30;;
32319;SDS011;19080;51.750;5.888;2023-07-31T09:15:38;3.38;;;3.03;;
32319;SDS011;19080;51.750;5.888;2023-07-31T09:18:06;3.60;;;3.30;;
32319;SDS011;19080;51.750;5.888;2023-07-31T09:20:34;5.18;;;3.33;;
32319;SDS011;19080;51.750;5.888;2023-07-31T09:23:11;5.97;;;3.38;;
32319;SDS011;19080;51.750;5.888;2023-07-31T09:25:40;4.60;;;3.88;;
32319;SDS011;19080;51.750;5.888;2023-07-31T09:28:10;7.18;;;3.88;;
32319;SDS011;19080;51.750;5.888;2023-07-31T09:30:48;6.95;;;3.97;;
32319;SDS011;19080;51.750;5.888;2023-07-31T09:33:17;4.57;;;4.15;;
32319;SDS011;19080;51.750;5.888;2023-07-31T09:35:44;5.57;;;3.85;;
32319;SDS011;19080;51.750;5.888;2023-07-31T09:38:12;5.53;;;4.53;;
32319;SDS011;19080;51.750;5.888;2023-07-31T09:40:49;4.65;;;3.90;;
32319;SDS011;19080;51.750;5.888;2023-07-31T09:43:17;7.53;;;5.03;;
32319;SDS011;19080;51.750;5.888;2023-07-31T09:45:45;10.18;;;5.32;;
32319;SDS011;19080;51.750;5.888;2023-07-31T09:48:16;7.10;;;4.88;;
32319;SDS011;19080;51.750;5.888;2023-07-31T09:50:47;7.78;;;4.97;;
32319;SDS011;19080;51.750;5.888;2023-07-31T09:53:15;6.00;;;5.43;;
32319;SDS011;19080;51.750;5.888;2023-07-31T09:55:43;8.23;;;5.70;;
32319;SDS011;19080;51.750;5.888;2023-07-31T09:58:11;11.38;;;6.30;;
32319;SDS011;19080;51.750;5.888;2023-07-31T10:00:38;8.45;;;6.07;;
32319;SDS011;19080;51.750;5.888;2023-07-31T10:03:07;12.65;;;6.38;;
32319;SDS011;19080;51.750;5.888;2023-07-31T10:05:36;9.40;;;6.65;;
32319;SDS011;19080;51.750;5.888;2023-07-31T10:08:09;9.20;;;6.22;;
32319;SDS011;19080;51.750;5.888;2023-07-31T10:10:37;9.52;;;6.20;;
32319;SDS011;19080;51.750;5.888;2023-07-31T10:13:07;8.77;;;6.88;;
32319;SDS011;19080;51.750;5.888;2023-07-31T10:15:35;9.85;;;7.00;;
32319;SDS011;19080;51.750;5.888;2023-07-31T10:18:02;9.38;;;5.80;;
32319;SDS011;19080;51.750;5.888;2023-07-31T10:20:33;10.95;;;6.75;;
32319;SDS011;19080;51.750;5.888;2023-07-31T10:23:00;11.00;;;6.07;;
32319;SDS011;19080;51.750;5.888;2023-07-31T10:25:28;7.53;;;5.40;;
32319;SDS011;19080;51.750;5.888;2023-07-31T10:27:55;8.63;;;5.13;;
32319;SDS011;19080;51.750;5.888;2023-07-31T10:30:29;8.18;;;5.47;;
32319;SDS011;19080;51.750;5.888;2023-07-31T10:32:58;9.20;;;5.53;;
32319;SDS011;19080;51.750;5.888;2023-07-31T10:35:26;7.45;;;4.80;;
32319;SDS011;19080;51.750;5.888;2023-07-31T10:37:54;13.32;;;6.18;;
32319;SDS011;19080;51.750;5.888;2023-07-31T10:40:25;7.47;;;5.20;;
32319;SDS011;19080;51.750;5.888;2023-07-31T10:42:53;9.00;;;5.05;;
32319;SDS011;19080;51.750;5.888;2023-07-31T10:45:37;9.88;;;5.10;;
32319;SDS011;19080;51.750;5.888;2023-07-31T10:48:07;9.97;;;4.53;;
32319;SDS011;19080;51.750;5.888;2023-07-31T10:50:50;7.80;;;4.20;;
32319;SDS011;19080;51.750;5.888;2023-07-31T10:53:22;6.97;;;4.15;;
32319;SDS011;19080;51.750;5.888;2023-07-31T10:55:49;8.48;;;5.10;;
32319;SDS011;19080;51.750;5.888;2023-07-31T10:58:20;9.07;;;4.35;;
32319;SDS011;19080;51.750;5.888;2023-07-31T11:00:49;10.10;;;4.38;;
32319;SDS011;19080;51.750;5.888;2023-07-31T11:03:18;7.07;;;4.50;;
32319;SDS011;19080;51.750;5.888;2023-07-31T11:05:52;6.10;;;4.43;;
32319;SDS011;19080;51.750;5.888;2023-07-31T11:08:41;10.15;;;4.47;;
32319;SDS011;19080;51.750;5.888;2023-07-31T11:11:15;7.22;;;4.30;;
32319;SDS011;19080;51.750;5.888;2023-07-31T11:13:50;7.70;;;3.90;;
32319;SDS011;19080;51.750;5.888;2023-07-31T11:16:20;6.80;;;4.40;;
32319;SDS011;19080;51.750;5.888;2023-07-31T11:18:51;4.53;;;3.90;;
32319;SDS011;19080;51.750;5.888;2023-07-31T11:21:23;7.90;;;4.10;;
32319;SDS011;19080;51.750;5.888;2023-07-31T11:23:51;5.80;;;4.03;;
32319;SDS011;19080;51.750;5.888;2023-07-31T11:26:20;4.78;;;3.83;;
32319;SDS011;19080;51.750;5.888;2023-07-31T11:28:47;7.60;;;3.38;;
32319;SDS011;19080;51.750;5.888;2023-07-31T11:31:14;6.28;;;4.15;;
32319;SDS011;19080;51.750;5.888;2023-07-31T11:33:41;6.15;;;4.13;;
32319;SDS011;19080;51.750;5.888;2023-07-31T11:36:16;4.93;;;4.38;;
32319;SDS011;19080;51.750;5.888;2023-07-31T11:38:44;8.70;;;4.68;;
32319;SDS011;19080;51.750;5.888;2023-07-31T11:41:13;5.35;;;3.90;;
32319;SDS011;19080;51.750;5.888;2023-07-31T11:43:40;7.35;;;4.30;;
32319;SDS011;19080;51.750;5.888;2023-07-31T11:46:07;6.78;;;4.43;;
32319;SDS011;19080;51.750;5.888;2023-07-31T11:48:37;8.40;;;4.38;;
32319;SDS011;19080;51.750;5.888;2023-07-31T11:51:04;7.80;;;4.72;;
32319;SDS011;19080;51.750;5.888;2023-07-31T11:53:43;7.15;;;4.78;;
32319;SDS011;19080;51.750;5.888;2023-07-31T11:56:13;7.05;;;4.53;;
32319;SDS011;19080;51.750;5.888;2023-07-31T11:58:40;6.97;;;4.95;;
32319;SDS011;19080;51.750;5.888;2023-07-31T12:01:09;6.72;;;4.10;;
32319;SDS011;19080;51.750;5.888;2023-07-31T12:03:36;6.32;;;4.50;;
32319;SDS011;19080;51.750;5.888;2023-07-31T12:06:04;5.97;;;3.45;;
32319;SDS011;19080;51.750;5.888;2023-07-31T12:08:31;5.88;;;3.75;;
32319;SDS011;19080;51.750;5.888;2023-07-31T12:11:01;6.18;;;3.97;;
32319;SDS011;19080;51.750;5.888;2023-07-31T12:13:30;8.57;;;4.43;;
32319;SDS011;19080;51.750;5.888;2023-07-31T12:15:59;7.13;;;3.95;;
32319;SDS011;19080;51.750;5.888;2023-07-31T12:18:27;8.15;;;3.85;;
32319;SDS011;19080;51.750;5.888;2023-07-31T12:20:57;6.88;;;3.85;;
32319;SDS011;19080;51.750;5.888;2023-07-31T12:23:27;4.65;;;3.50;;
32319;SDS011;19080;51.750;5.888;2023-07-31T12:26:02;5.72;;;3.97;;
32319;SDS011;19080;51.750;5.888;2023-07-31T12:28:32;5.00;;;3.22;;
32319;SDS011;19080;51.750;5.888;2023-07-31T12:31:02;7.75;;;3.85;;
32319;SDS011;19080;51.750;5.888;2023-07-31T12:33:32;4.82;;;3.92;;
32319;SDS011;19080;51.750;5.888;2023-07-31T12:36:01;6.32;;;3.50;;
32319;SDS011;19080;51.750;5.888;2023-07-31T12:38:30;6.57;;;3.78;;
32319;SDS011;19080;51.750;5.888;2023-07-31T12:40:57;6.60;;;3.65;;
32319;SDS011;19080;51.750;5.888;2023-07-31T12:43:23;4.70;;;3.05;;
32319;SDS011;19080;51.750;5.888;2023-07-31T12:45:50;7.57;;;3.20;;
32319;SDS011;19080;51.750;5.888;2023-07-31T12:48:17;4.38;;;3.50;;
32319;SDS011;19080;51.750;5.888;2023-07-31T12:50:44;4.80;;;3.50;;
32319;SDS011;19080;51.750;5.888;2023-07-31T12:53:10;5.90;;;4.00;;
32319;SDS011;19080;51.750;5.888;2023-07-31T12:55:37;7.70;;;3.60;;
32319;SDS011;19080;51.750;5.888;2023-07-31T12:58:03;5.38;;;3.05;;
32319;SDS011;19080;51.750;5.888;2023-07-31T13:00:30;5.40;;;3.78;;
32319;SDS011;19080;51.750;5.888;2023-07-31T13:02:57;5.57;;;3.88;;
32319;SDS011;19080;51.750;5.888;2023-07-31T13:05:24;5.28;;;3.40;;
32319;SDS011;19080;51.750;5.888;2023-07-31T13:07:51;6.07;;;4.40;;
32319;SDS011;19080;51.750;5.888;2023-07-31T13:10:18;5.60;;;3.95;;
32319;SDS011;19080;51.750;5.888;2023-07-31T13:12:46;4.65;;;3.90;;
32319;SDS011;19080;51.750;5.888;2023-07-31T13:15:12;5.70;;;3.88;;
32319;SDS011;19080;51.750;5.888;2023-07-31T13:17:39;8.68;;;4.25;;
32319;SDS011;19080;51.750;5.888;2023-07-31T13:20:06;5.85;;;3.95;;
32319;SDS011;19080;51.750;5.888;2023-07-31T13:22:33;6.40;;;4.43;;
32319;SDS011;19080;51.750;5.888;2023-07-31T13:25:00;8.18;;;3.88;;
32319;SDS011;19080;51.750;5.888;2023-07-31T13:27:26;6.63;;;4.72;;
32319;SDS011;19080;51.750;5.888;2023-07-31T13:29:53;6.18;;;3.75;;
32319;SDS011;19080;51.750;5.888;2023-07-31T13:32:20;9.15;;;4.95;;
32319;SDS011;19080;51.750;5.888;2023-07-31T13:34:47;7.95;;;4.25;;
32319;SDS011;19080;51.750;5.888;2023-07-31T13:37:15;6.22;;;4.60;;
32319;SDS011;19080;51.750;5.888;2023-07-31T13:39:42;6.20;;;3.80;;
32319;SDS011;19080;51.750;5.888;2023-07-31T13:42:09;7.05;;;4.75;;
32319;SDS011;19080;51.750;5.888;2023-07-31T13:44:38;7.15;;;4.68;;
32319;SDS011;19080;51.750;5.888;2023-07-31T13:47:06;7.80;;;5.10;;
32319;SDS011;19080;51.750;5.888;2023-07-31T13:49:33;7.18;;;4.60;;
32319;SDS011;19080;51.750;5.888;2023-07-31T13:52:00;7.55;;;5.00;;
32319;SDS011;19080;51.750;5.888;2023-07-31T13:54:27;9.15;;;4.80;;
32319;SDS011;19080;51.750;5.888;2023-07-31T13:56:56;6.32;;;4.68;;
32319;SDS011;19080;51.750;5.888;2023-07-31T13:59:23;8.23;;;5.05;;
32319;SDS011;19080;51.750;5.888;2023-07-31T14:01:50;9.77;;;5.15;;
32319;SDS011;19080;51.750;5.888;2023-07-31T14:04:17;8.00;;;5.35;;
32319;SDS011;19080;51.750;5.888;2023-07-31T14:06:44;10.88;;;5.80;;
32319;SDS011;19080;51.750;5.888;2023-07-31T14:09:10;9.05;;;5.43;;
32319;SDS011;19080;51.750;5.888;2023-07-31T14:11:37;8.27;;;5.80;;
32319;SDS011;19080;51.750;5.888;2023-07-31T14:14:08;9.68;;;4.97;;
32319;SDS011;19080;51.750;5.888;2023-07-31T14:16:36;8.68;;;5.00;;
32319;SDS011;19080;51.750;5.888;2023-07-31T14:19:04;9.27;;;5.53;;
32319;SDS011;19080;51.750;5.888;2023-07-31T14:21:31;9.95;;;5.35;;
32319;SDS011;19080;51.750;5.888;2023-07-31T14:23:57;12.75;;;6.40;;
32319;SDS011;19080;51.750;5.888;2023-07-31T14:26:25;8.35;;;5.45;;
32319;SDS011;19080;51.750;5.888;2023-07-31T14:28:51;9.20;;;5.60;;
32319;SDS011;19080;51.750;5.888;2023-07-31T14:31:18;9.20;;;5.80;;
32319;SDS011;19080;51.750;5.888;2023-07-31T14:33:45;9.75;;;5.60;;
32319;SDS011;19080;51.750;5.888;2023-07-31T14:36:11;8.13;;;5.65;;
32319;SDS011;19080;51.750;5.888;2023-07-31T14:38:38;11.23;;;5.88;;
32319;SDS011;19080;51.750;5.888;2023-07-31T14:41:05;9.98;;;6.28;;
32319;SDS011;19080;51.750;5.888;2023-07-31T14:43:31;10.27;;;6.10;;
32319;SDS011;19080;51.750;5.888;2023-07-31T14:45:58;9.57;;;6.40;;
32319;SDS011;19080;51.750;5.888;2023-07-31T14:48:26;10.40;;;5.93;;